createdAt,value
2022-07-30T00:00:42.761Z,24.32
2022-07-30T00:01:44.757Z,24.27
2022-07-30T00:02:46.734Z,24.26
2022-07-30T00:03:48.854Z,24.11
2022-07-30T00:04:53.451Z,24.10
2022-07-30T00:05:55.781Z,24.11
2022-07-30T00:06:58.317Z,24.04
2022-07-30T00:08:00.583Z,24.07
2022-07-30T00:09:02.588Z,24.02
2022-07-30T00:10:04.907Z,24.03
2022-07-30T00:11:06.955Z,23.98
2022-07-30T00:12:09.133Z,23.98
2022-07-30T00:13:11.085Z,23.94
2022-07-30T00:14:16.417Z,23.95
2022-07-30T00:15:18.495Z,23.94
2022-07-30T00:16:20.543Z,23.92
2022-07-30T00:17:22.568Z,23.90
2022-07-30T00:18:24.557Z,23.82
2022-07-30T00:19:27.312Z,23.78
2022-07-30T00:20:29.412Z,23.78
2022-07-30T00:21:38.711Z,23.75
2022-07-30T00:22:41.307Z,23.72
2022-07-30T00:23:43.378Z,23.67
2022-07-30T00:25:04.190Z,23.65
2022-07-30T00:26:06.189Z,23.64
2022-07-30T00:27:09.312Z,23.58
2022-07-30T00:28:11.353Z,23.62
2022-07-30T00:29:13.321Z,23.61
2022-07-30T00:30:15.627Z,23.60
2022-07-30T00:31:18.587Z,23.60
2022-07-30T00:32:20.594Z,23.57
2022-07-30T00:33:22.539Z,23.62
2022-07-30T00:34:24.577Z,23.61
2022-07-30T00:35:27.661Z,23.61
2022-07-30T00:36:29.883Z,23.62
2022-07-30T00:37:31.853Z,23.63
2022-07-30T00:38:33.858Z,23.66
2022-07-30T00:39:35.885Z,23.64
2022-07-30T00:40:38.056Z,23.64
2022-07-30T00:41:56.253Z,23.59
2022-07-30T00:42:58.257Z,23.58
2022-07-30T00:44:00.220Z,23.52
2022-07-30T00:45:02.650Z,23.51
2022-07-30T00:46:04.745Z,23.49
2022-07-30T00:47:06.862Z,23.49
2022-07-30T00:48:08.878Z,23.45
2022-07-30T00:49:12.313Z,23.43
2022-07-30T00:50:16.393Z,23.39
2022-07-30T00:51:18.495Z,23.37
2022-07-30T00:52:22.114Z,23.31
2022-07-30T00:53:24.210Z,23.29
2022-07-30T00:54:26.246Z,23.24
2022-07-30T00:55:29.091Z,23.23
2022-07-30T00:56:31.068Z,23.19
2022-07-30T00:57:33.223Z,23.20
2022-07-30T00:58:36.968Z,23.17
2022-07-30T00:59:39.003Z,23.13
2022-07-30T01:00:41.118Z,23.13
2022-07-30T01:01:43.308Z,23.11
2022-07-30T01:02:46.500Z,23.13
2022-07-30T01:03:48.489Z,23.09
2022-07-30T01:04:50.505Z,23.04
2022-07-30T01:05:54.784Z,22.99
2022-07-30T01:06:57.395Z,22.97
2022-07-30T01:07:59.557Z,22.94
2022-07-30T01:09:01.561Z,22.89
2022-07-30T01:10:04.142Z,22.79
2022-07-30T01:11:06.213Z,22.77
2022-07-30T01:12:10.072Z,22.78
2022-07-30T01:13:12.860Z,22.81
2022-07-30T01:14:15.044Z,22.79
2022-07-30T01:15:17.883Z,22.81
2022-07-30T01:16:19.870Z,22.82
2022-07-30T01:17:21.924Z,22.84
2022-07-30T01:18:25.296Z,22.80
2022-07-30T01:19:48.822Z,22.78
2022-07-30T01:21:02.176Z,22.75
2022-07-30T01:22:10.671Z,22.65
2022-07-30T01:23:21.997Z,22.65
2022-07-30T01:24:40.927Z,22.62
2022-07-30T01:25:50.913Z,22.57
2022-07-30T01:26:54.370Z,22.55
2022-07-30T01:28:07.430Z,22.53
2022-07-30T01:29:10.793Z,22.47
2022-07-30T01:30:14.308Z,22.47
2022-07-30T01:31:17.731Z,22.43
2022-07-30T01:32:21.852Z,22.39
2022-07-30T01:33:24.534Z,22.37
2022-07-30T01:34:31.120Z,22.35
2022-07-30T01:35:34.372Z,22.31
2022-07-30T01:36:36.939Z,22.29
2022-07-30T01:37:39.719Z,22.25
2022-07-30T01:38:43.109Z,22.23
2022-07-30T01:39:45.324Z,22.21
2022-07-30T01:40:48.100Z,22.17
2022-07-30T01:41:50.726Z,22.15
2022-07-30T01:42:58.488Z,22.14
2022-07-30T01:44:01.978Z,22.07
2022-07-30T01:45:05.812Z,22.02
2022-07-30T01:46:09.167Z,22.04
2022-07-30T01:47:13.814Z,21.97
2022-07-30T01:48:18.266Z,21.98
2022-07-30T01:49:21.639Z,22.01
2022-07-30T01:50:23.980Z,22.02
2022-07-30T01:51:26.117Z,22.07
2022-07-30T01:52:36.842Z,22.01
2022-07-30T01:53:39.653Z,22.04
2022-07-30T01:54:44.381Z,22.03
2022-07-30T01:55:47.032Z,21.99
2022-07-30T01:56:50.086Z,21.94
2022-07-30T01:57:53.946Z,21.89
2022-07-30T01:58:57.130Z,21.86
2022-07-30T02:00:03.093Z,21.82
2022-07-30T02:01:18.587Z,21.82
2022-07-30T02:02:20.817Z,21.80
2022-07-30T02:03:22.957Z,21.84
2022-07-30T02:04:25.395Z,21.85
2022-07-30T02:05:29.609Z,21.83
2022-07-30T02:06:44.871Z,21.79
2022-07-30T02:07:54.758Z,21.78
2022-07-30T02:08:59.426Z,21.74
2022-07-30T02:10:11.428Z,21.72
2022-07-30T02:11:36.065Z,21.70
2022-07-30T02:12:42.934Z,21.67
2022-07-30T02:13:47.496Z,21.62
2022-07-30T02:14:52.351Z,21.66
2022-07-30T02:15:57.294Z,21.63
2022-07-30T02:17:02.294Z,21.56
2022-07-30T02:18:14.994Z,21.57
2022-07-30T02:19:18.342Z,21.54
2022-07-30T02:20:25.239Z,21.51
2022-07-30T02:21:36.588Z,21.53
2022-07-30T02:22:40.753Z,21.51
2022-07-30T02:23:44.305Z,21.48
2022-07-30T02:24:47.906Z,21.46
2022-07-30T02:25:52.229Z,21.43
2022-07-30T02:27:02.264Z,21.40
2022-07-30T02:28:07.552Z,21.41
2022-07-30T02:29:11.657Z,21.40
2022-07-30T02:30:15.115Z,21.37
2022-07-30T02:31:20.882Z,21.36
2022-07-30T02:32:24.589Z,21.36
2022-07-30T02:33:33.405Z,21.34
2022-07-30T02:34:38.999Z,21.34
2022-07-30T02:35:41.373Z,21.30
2022-07-30T02:36:44.657Z,21.30
2022-07-30T02:37:48.399Z,21.24
2022-07-30T02:38:51.723Z,21.25
2022-07-30T02:39:55.765Z,21.19
2022-07-30T02:40:59.220Z,21.24
2022-07-30T02:42:02.452Z,21.13
2022-07-30T02:43:05.159Z,21.17
2022-07-30T02:44:08.330Z,21.14
2022-07-30T02:45:11.838Z,21.12
2022-07-30T02:46:15.242Z,21.11
2022-07-30T02:47:38.871Z,21.13
2022-07-30T02:48:41.269Z,21.12
2022-07-30T02:49:44.432Z,21.10
2022-07-30T02:50:47.822Z,21.06
2022-07-30T02:51:50.778Z,21.04
2022-07-30T02:52:54.310Z,20.99
2022-07-30T02:53:56.874Z,20.99
2022-07-30T02:55:00.268Z,21.00
2022-07-30T02:56:05.237Z,21.03
2022-07-30T02:57:08.672Z,20.99
2022-07-30T02:58:11.515Z,20.95
2022-07-30T02:59:14.183Z,20.91
2022-07-30T03:00:16.892Z,20.92
2022-07-30T03:01:20.167Z,20.92
2022-07-30T03:02:28.925Z,20.84
2022-07-30T03:03:32.780Z,20.83
2022-07-30T03:04:35.748Z,20.78
2022-07-30T03:05:39.716Z,20.79
2022-07-30T03:06:43.183Z,20.75
2022-07-30T03:07:46.270Z,20.73
2022-07-30T03:08:48.694Z,20.76
2022-07-30T03:09:52.738Z,20.75
2022-07-30T03:10:57.447Z,20.73
2022-07-30T03:12:01.962Z,20.75
2022-07-30T03:13:05.762Z,20.75
2022-07-30T03:14:11.103Z,20.76
2022-07-30T03:15:13.495Z,20.74
2022-07-30T03:16:17.256Z,20.73
2022-07-30T03:17:20.259Z,20.67
2022-07-30T03:18:23.450Z,20.68
2022-07-30T03:19:27.639Z,20.63
2022-07-30T03:20:30.768Z,20.63
2022-07-30T03:21:35.759Z,20.61
2022-07-30T03:22:42.472Z,20.62
2022-07-30T03:23:45.358Z,20.61
2022-07-30T03:24:48.657Z,20.60
2022-07-30T03:26:10.967Z,20.61
2022-07-30T03:27:13.845Z,20.64
2022-07-30T03:28:16.583Z,20.64
2022-07-30T03:29:21.768Z,20.55
2022-07-30T03:30:24.762Z,20.64
2022-07-30T03:31:28.502Z,20.67
2022-07-30T03:32:39.222Z,20.70
2022-07-30T03:33:41.875Z,20.70
2022-07-30T03:34:44.302Z,20.69
2022-07-30T03:35:49.757Z,20.69
2022-07-30T03:36:52.755Z,20.74
2022-07-30T03:37:55.929Z,20.72
2022-07-30T03:38:58.097Z,20.69
2022-07-30T03:40:00.798Z,20.65
2022-07-30T03:41:03.316Z,20.65
2022-07-30T03:42:06.534Z,20.67
2022-07-30T03:43:18.552Z,20.66
2022-07-30T03:44:33.893Z,20.65
2022-07-30T03:45:38.112Z,20.66
2022-07-30T03:46:42.257Z,20.67
2022-07-30T03:47:46.327Z,20.68
2022-07-30T03:48:48.919Z,20.67
2022-07-30T03:49:52.348Z,20.63
2022-07-30T03:50:54.766Z,20.64
2022-07-30T03:51:57.325Z,20.63
2022-07-30T03:53:00.570Z,20.67
2022-07-30T03:54:06.459Z,20.65
2022-07-30T03:55:15.535Z,20.69
2022-07-30T03:56:23.412Z,20.70
2022-07-30T03:57:31.281Z,20.63
2022-07-30T03:58:34.118Z,20.60
2022-07-30T03:59:40.234Z,20.63
2022-07-30T04:00:42.989Z,20.65
2022-07-30T04:01:45.945Z,20.60
2022-07-30T04:02:59.345Z,20.64
2022-07-30T04:04:06.529Z,20.55
2022-07-30T04:05:08.686Z,20.54
2022-07-30T04:06:10.691Z,20.48
2022-07-30T04:07:12.764Z,20.51
2022-07-30T04:08:14.735Z,20.52
2022-07-30T04:09:19.425Z,20.52
2022-07-30T04:10:22.666Z,20.51
2022-07-30T04:11:40.483Z,20.49
2022-07-30T04:12:45.759Z,20.45
2022-07-30T04:13:48.748Z,20.43
2022-07-30T04:14:53.517Z,20.42
2022-07-30T04:16:37.389Z,20.40
2022-07-30T04:17:24.608Z,20.42
2022-07-30T04:18:27.097Z,20.41
2022-07-30T04:19:34.508Z,20.41
2022-07-30T04:20:39.996Z,20.42
2022-07-30T04:21:42.506Z,20.45
2022-07-30T04:22:45.647Z,20.46
2022-07-30T04:24:03.623Z,20.49
2022-07-30T04:25:08.747Z,20.45
2022-07-30T04:26:11.563Z,20.49
2022-07-30T04:27:14.036Z,20.52
2022-07-30T04:28:16.258Z,20.54
2022-07-30T04:29:22.684Z,20.61
2022-07-30T04:30:27.596Z,20.62
2022-07-30T04:31:29.896Z,20.62
2022-07-30T04:32:38.071Z,20.67
2022-07-30T04:34:04.690Z,20.69
2022-07-30T04:35:13.414Z,20.73
2022-07-30T04:36:48.144Z,20.78
2022-07-30T04:37:50.092Z,20.77
2022-07-30T04:38:52.270Z,20.84
2022-07-30T04:39:54.929Z,20.86
2022-07-30T04:40:56.907Z,20.89
2022-07-30T04:41:59.929Z,20.96
2022-07-30T04:43:01.878Z,20.98
2022-07-30T04:44:04.074Z,21.04
2022-07-30T04:45:07.845Z,21.11
2022-07-30T04:46:39.733Z,21.15
2022-07-30T04:47:42.048Z,21.20
2022-07-30T04:48:56.645Z,21.21
2022-07-30T04:50:01.907Z,21.30
2022-07-30T04:51:05.532Z,21.23
2022-07-30T04:52:10.726Z,21.27
2022-07-30T04:53:13.082Z,21.35
2022-07-30T04:54:21.215Z,21.38
2022-07-30T04:55:23.558Z,21.46
2022-07-30T04:56:29.294Z,21.48
2022-07-30T04:57:33.882Z,21.48
2022-07-30T04:58:37.790Z,21.56
2022-07-30T04:59:40.047Z,21.65
2022-07-30T05:00:42.250Z,21.66
2022-07-30T05:01:52.409Z,21.74
2022-07-30T05:02:55.691Z,21.77
2022-07-30T05:03:57.835Z,21.72
2022-07-30T05:05:01.130Z,21.85
2022-07-30T05:06:03.298Z,21.96
2022-07-30T05:07:11.580Z,21.98
2022-07-30T05:08:13.882Z,22.09
2022-07-30T05:09:16.301Z,22.08
2022-07-30T05:10:19.964Z,22.17
2022-07-30T05:11:22.289Z,22.21
2022-07-30T05:12:33.897Z,22.28
2022-07-30T05:13:38.299Z,22.32
2022-07-30T05:14:47.895Z,22.38
2022-07-30T05:15:50.789Z,22.46
2022-07-30T05:16:54.960Z,22.51
2022-07-30T05:17:58.787Z,22.56
2022-07-30T05:19:00.838Z,22.56
2022-07-30T05:20:04.155Z,22.71
2022-07-30T05:21:15.657Z,22.76
2022-07-30T05:22:20.454Z,22.85
2022-07-30T05:23:22.599Z,22.92
2022-07-30T05:25:03.356Z,23.01
2022-07-30T05:26:21.307Z,23.05
2022-07-30T05:27:25.588Z,23.14
2022-07-30T05:28:27.765Z,23.22
2022-07-30T05:29:30.467Z,23.29
2022-07-30T05:30:43.445Z,23.37
2022-07-30T05:31:52.377Z,23.25
2022-07-30T05:32:56.066Z,23.39
2022-07-30T05:34:02.777Z,23.51
2022-07-30T05:35:12.107Z,23.52
2022-07-30T05:36:14.321Z,23.61
2022-07-30T05:37:16.334Z,23.70
2022-07-30T05:38:18.386Z,23.78
2022-07-30T05:39:57.417Z,23.87
2022-07-30T05:41:31.791Z,23.90
2022-07-30T05:42:44.804Z,23.91
2022-07-30T05:43:46.798Z,23.90
2022-07-30T05:44:58.095Z,23.97
2022-07-30T05:46:00.203Z,24.12
2022-07-30T05:47:02.654Z,24.15
2022-07-30T05:48:05.169Z,24.24
2022-07-30T05:49:07.478Z,24.33
2022-07-30T05:50:09.521Z,24.30
2022-07-30T05:51:11.574Z,24.47
2022-07-30T05:52:13.635Z,24.41
2022-07-30T05:53:16.398Z,24.43
2022-07-30T05:54:36.942Z,24.65
2022-07-30T05:55:38.873Z,24.73
2022-07-30T05:57:01.839Z,24.85
2022-07-30T05:58:08.593Z,24.89
2022-07-30T05:59:10.725Z,24.95
2022-07-30T06:00:30.995Z,25.06
2022-07-30T06:01:33.775Z,25.18
2022-07-30T06:02:42.565Z,25.15
2022-07-30T06:04:02.900Z,25.26
2022-07-30T06:05:19.089Z,25.15
2022-07-30T06:06:23.369Z,25.35
2022-07-30T06:07:26.304Z,25.22
2022-07-30T06:08:30.561Z,25.14
2022-07-30T06:09:37.142Z,25.08
2022-07-30T06:10:40.779Z,24.98
2022-07-30T06:11:44.630Z,25.23
2022-07-30T06:12:46.993Z,25.49
2022-07-30T06:13:49.970Z,25.76
2022-07-30T06:14:52.694Z,26.18
2022-07-30T06:16:00.796Z,26.50
2022-07-30T06:17:03.179Z,26.87
2022-07-30T06:18:23.244Z,27.32
2022-07-30T06:19:27.234Z,27.89
2022-07-30T06:20:29.417Z,28.29
2022-07-30T06:22:05.750Z,28.75
2022-07-30T06:23:07.522Z,29.40
2022-07-30T06:24:25.644Z,28.96
2022-07-30T06:25:45.334Z,29.09
2022-07-30T06:26:47.472Z,28.65
2022-07-30T06:27:49.653Z,28.22
2022-07-30T06:28:51.642Z,28.29
2022-07-30T06:30:04.992Z,28.09
2022-07-30T06:31:07.472Z,27.96
2022-07-30T06:32:09.595Z,27.43
2022-07-30T06:33:11.958Z,27.33
2022-07-30T06:34:13.993Z,27.23
2022-07-30T06:35:17.924Z,27.41
2022-07-30T06:36:20.100Z,27.51
2022-07-30T06:38:01.793Z,26.70
2022-07-30T06:39:09.613Z,26.86
2022-07-30T06:40:34.546Z,26.85
2022-07-30T06:41:50.545Z,27.04
2022-07-30T06:42:52.510Z,26.88
2022-07-30T06:44:09.159Z,26.76
2022-07-30T06:45:29.605Z,26.76
2022-07-30T06:46:55.274Z,26.85
2022-07-30T06:48:00.677Z,27.03
2022-07-30T06:49:06.077Z,26.94
2022-07-30T06:50:08.832Z,27.13
2022-07-30T06:51:11.573Z,27.27
2022-07-30T06:52:18.651Z,27.22
2022-07-30T06:53:25.416Z,27.20
2022-07-30T06:54:46.596Z,27.35
2022-07-30T06:55:58.328Z,27.64
2022-07-30T06:57:06.422Z,27.36
2022-07-30T06:58:08.630Z,27.41
2022-07-30T06:59:30.904Z,27.68
2022-07-30T07:00:55.132Z,27.53
2022-07-30T07:01:57.380Z,27.44
2022-07-30T07:02:59.513Z,27.63
2022-07-30T07:04:10.682Z,27.86
2022-07-30T07:05:14.494Z,28.05
2022-07-30T07:06:20.880Z,28.17
2022-07-30T07:07:40.418Z,28.30
2022-07-30T07:08:44.891Z,28.41
2022-07-30T07:09:50.956Z,28.02
2022-07-30T07:11:13.398Z,27.63
2022-07-30T07:12:30.438Z,27.91
2022-07-30T07:13:32.546Z,28.03
2022-07-30T07:14:36.757Z,27.98
2022-07-30T07:15:38.719Z,28.26
2022-07-30T07:16:45.007Z,28.35
2022-07-30T07:18:09.943Z,28.60
2022-07-30T07:19:14.388Z,28.73
2022-07-30T07:20:36.770Z,28.36
2022-07-30T07:21:40.707Z,28.26
2022-07-30T07:22:42.841Z,28.14
2022-07-30T07:23:49.974Z,28.21
2022-07-30T07:25:10.612Z,27.66
2022-07-30T07:26:12.746Z,28.01
2022-07-30T07:27:15.888Z,27.97
2022-07-30T07:28:19.999Z,28.24
2022-07-30T07:29:22.534Z,28.21
2022-07-30T07:30:24.660Z,28.47
2022-07-30T07:32:05.821Z,28.58
2022-07-30T07:32:49.070Z,28.64
2022-07-30T07:33:54.272Z,28.90
2022-07-30T07:34:56.347Z,29.14
2022-07-30T07:35:58.394Z,28.70
2022-07-30T07:37:04.401Z,29.11
2022-07-30T07:38:06.420Z,29.06
2022-07-30T07:39:09.826Z,29.31
2022-07-30T07:40:16.895Z,29.49
2022-07-30T07:41:19.040Z,29.02
2022-07-30T07:42:22.083Z,28.77
2022-07-30T07:43:25.345Z,28.87
2022-07-30T07:44:29.995Z,29.12
2022-07-30T07:45:32.056Z,29.25
2022-07-30T07:46:39.927Z,28.59
2022-07-30T07:47:51.533Z,28.48
2022-07-30T07:49:18.407Z,28.60
2022-07-30T07:50:27.451Z,28.81
2022-07-30T07:51:46.789Z,28.28
2022-07-30T07:52:52.233Z,28.92
2022-07-30T07:54:11.906Z,29.19
2022-07-30T07:55:16.452Z,28.87
2022-07-30T07:56:19.011Z,28.49
2022-07-30T07:57:21.709Z,28.37
2022-07-30T07:58:26.126Z,28.80
2022-07-30T07:59:36.401Z,28.77
2022-07-30T08:00:46.996Z,28.65
2022-07-30T08:01:49.925Z,28.99
2022-07-30T08:02:58.185Z,28.98
2022-07-30T08:04:00.418Z,29.10
2022-07-30T08:05:58.209Z,29.63
2022-07-30T08:07:19.969Z,30.23
2022-07-30T08:08:57.430Z,29.64
2022-07-30T08:10:17.695Z,29.63
2022-07-30T08:11:38.272Z,29.90
2022-07-30T08:12:58.536Z,30.10
2022-07-30T08:14:18.890Z,30.42
2022-07-30T08:15:39.128Z,30.83
2022-07-30T08:17:01.676Z,31.08
2022-07-30T08:18:21.963Z,30.37
2022-07-30T08:19:34.122Z,30.43
2022-07-30T08:20:47.566Z,29.92
2022-07-30T08:21:54.231Z,30.03
2022-07-30T08:22:56.661Z,29.34
2022-07-30T08:24:01.169Z,29.94
2022-07-30T08:25:04.018Z,30.33
2022-07-30T08:26:06.214Z,30.67
2022-07-30T08:27:08.934Z,30.91
2022-07-30T08:29:13.039Z,30.23
2022-07-30T08:30:19.958Z,29.52
2022-07-30T08:31:22.194Z,29.86
2022-07-30T08:32:24.598Z,30.14
2022-07-30T08:33:27.542Z,30.23
2022-07-30T08:34:29.874Z,30.63
2022-07-30T08:35:33.115Z,31.36
2022-07-30T08:36:35.364Z,31.53
2022-07-30T08:37:40.937Z,32.71
2022-07-30T08:38:43.427Z,32.94
2022-07-30T08:39:45.869Z,33.06
2022-07-30T08:40:48.319Z,34.63
2022-07-30T08:41:51.702Z,34.79
2022-07-30T08:42:54.014Z,35.45
2022-07-30T08:44:00.389Z,35.65
2022-07-30T08:45:03.218Z,35.31
2022-07-30T08:46:09.946Z,35.91
2022-07-30T08:47:26.175Z,37.08
2022-07-30T08:48:47.107Z,37.28
2022-07-30T08:49:51.508Z,37.94
2022-07-30T08:50:59.498Z,37.30
2022-07-30T08:52:22.218Z,36.83
2022-07-30T08:53:34.777Z,37.81
2022-07-30T08:54:40.513Z,38.21
2022-07-30T08:55:43.081Z,38.82
2022-07-30T08:56:45.781Z,38.65
2022-07-30T08:57:48.761Z,37.96
2022-07-30T08:58:51.476Z,38.81
2022-07-30T09:00:01.340Z,37.87
2022-07-30T09:01:04.859Z,38.94
2022-07-30T09:02:12.076Z,39.26
2022-07-30T09:03:27.991Z,39.81
2022-07-30T09:04:33.834Z,40.40
2022-07-30T09:05:36.120Z,40.39
2022-07-30T09:06:38.414Z,39.50
2022-07-30T09:07:41.537Z,39.29
2022-07-30T09:08:49.224Z,39.36
2022-07-30T09:09:52.847Z,37.76
2022-07-30T09:10:55.467Z,37.58
2022-07-30T09:11:57.678Z,37.28
2022-07-30T09:13:00.902Z,36.78
2022-07-30T09:14:14.454Z,37.48
2022-07-30T09:15:20.370Z,36.58
2022-07-30T09:16:26.831Z,37.17
2022-07-30T09:17:57.937Z,37.32
2022-07-30T09:19:12.740Z,38.44
2022-07-30T09:20:16.037Z,38.17
2022-07-30T09:21:26.488Z,39.37
2022-07-30T09:22:56.220Z,39.80
2022-07-30T09:24:16.947Z,37.57
2022-07-30T09:25:49.259Z,37.24
2022-07-30T09:27:10.114Z,36.01
2022-07-30T09:28:34.370Z,37.43
2022-07-30T09:29:59.674Z,36.08
2022-07-30T09:31:23.784Z,36.51
2022-07-30T09:32:55.873Z,37.54
2022-07-30T09:34:04.221Z,37.68
2022-07-30T09:35:25.096Z,36.87
2022-07-30T09:36:45.514Z,38.55
2022-07-30T09:38:06.777Z,39.06
2022-07-30T09:39:40.631Z,37.88
2022-07-30T09:41:07.976Z,38.10
2022-07-30T09:42:27.878Z,37.94
2022-07-30T09:43:41.267Z,37.64
2022-07-30T09:44:48.122Z,36.69
2022-07-30T09:45:57.865Z,38.45
2022-07-30T09:47:02.774Z,38.09
2022-07-30T09:48:23.065Z,37.84
2022-07-30T09:49:27.638Z,38.36
2022-07-30T09:50:30.995Z,37.14
2022-07-30T09:52:00.077Z,38.17
2022-07-30T09:53:09.526Z,37.84
2022-07-30T09:54:15.449Z,39.14
2022-07-30T09:55:34.794Z,39.20
2022-07-30T09:56:37.790Z,38.29
2022-07-30T09:57:58.973Z,39.71
2022-07-30T09:59:02.721Z,39.70
2022-07-30T10:00:23.943Z,40.41
2022-07-30T10:01:56.280Z,40.82
2022-07-30T10:03:34.507Z,41.89
2022-07-30T10:05:15.713Z,42.61
2022-07-30T10:06:18.142Z,41.60
2022-07-30T10:07:25.381Z,41.95
2022-07-30T10:08:46.667Z,41.01
2022-07-30T10:09:53.325Z,40.06
2022-07-30T10:10:56.174Z,40.43
2022-07-30T10:12:02.675Z,40.81
2022-07-30T10:13:08.924Z,40.35
2022-07-30T10:14:16.917Z,40.74
2022-07-30T10:15:21.245Z,41.46
2022-07-30T10:16:27.474Z,42.85
2022-07-30T10:17:34.257Z,42.80
2022-07-30T10:18:57.467Z,42.19
2022-07-30T10:20:18.711Z,42.23
2022-07-30T10:21:20.971Z,42.70
2022-07-30T10:23:07.642Z,43.71
2022-07-30T10:24:11.914Z,42.73
2022-07-30T10:25:32.694Z,43.51
2022-07-30T10:27:16.258Z,43.50
2022-07-30T10:28:44.299Z,42.33
2022-07-30T10:29:47.767Z,43.56
2022-07-30T10:30:51.614Z,43.33
2022-07-30T10:31:54.547Z,42.67
2022-07-30T10:32:58.656Z,44.07
2022-07-30T10:34:02.609Z,45.35
2022-07-30T10:35:06.229Z,45.89
2022-07-30T10:36:11.789Z,46.34
2022-07-30T10:37:16.696Z,44.67
2022-07-30T10:38:24.017Z,44.39
2022-07-30T10:39:37.271Z,42.45
2022-07-30T10:40:49.927Z,40.83
2022-07-30T10:42:08.910Z,40.41
2022-07-30T10:43:48.330Z,40.38
2022-07-30T10:45:23.163Z,40.02
2022-07-30T10:46:56.604Z,40.72
2022-07-30T10:48:04.069Z,41.49
2022-07-30T10:49:18.815Z,42.78
2022-07-30T10:50:26.661Z,43.18
2022-07-30T10:51:49.874Z,41.13
2022-07-30T10:52:56.958Z,40.79
2022-07-30T10:53:59.185Z,39.93
2022-07-30T10:55:01.607Z,39.48
2022-07-30T10:56:25.490Z,39.38
2022-07-30T10:57:32.752Z,39.15
2022-07-30T10:59:05.579Z,40.83
2022-07-30T11:00:12.083Z,41.20
2022-07-30T11:01:17.976Z,41.37
2022-07-30T11:02:22.193Z,41.57
2022-07-30T11:03:41.558Z,40.88
2022-07-30T11:04:47.818Z,39.08
2022-07-30T11:05:52.888Z,39.12
2022-07-30T11:07:27.717Z,39.79
2022-07-30T11:08:42.772Z,40.66
2022-07-30T11:09:45.389Z,39.45
2022-07-30T11:11:59.075Z,41.07
2022-07-30T11:12:46.064Z,39.42
2022-07-30T11:14:02.373Z,41.32
2022-07-30T11:15:07.315Z,42.02
2022-07-30T11:16:21.745Z,41.66
2022-07-30T11:17:24.158Z,41.22
2022-07-30T11:18:28.829Z,42.48
2022-07-30T11:19:55.560Z,42.93
2022-07-30T11:21:21.308Z,43.93
2022-07-30T11:22:38.803Z,44.44
2022-07-30T11:23:41.622Z,43.33
2022-07-30T11:24:45.649Z,42.70
2022-07-30T11:25:50.114Z,42.55
2022-07-30T11:26:53.191Z,42.68
2022-07-30T11:27:56.849Z,43.47
2022-07-30T11:28:59.123Z,43.10
2022-07-30T11:30:04.382Z,41.96
2022-07-30T11:31:54.523Z,41.91
2022-07-30T11:33:06.379Z,41.79
2022-07-30T11:34:20.624Z,43.00
2022-07-30T11:35:34.356Z,42.94
2022-07-30T11:36:37.667Z,43.53
2022-07-30T11:38:22.195Z,43.03
2022-07-30T11:39:29.842Z,42.42
2022-07-30T11:40:46.736Z,42.96
2022-07-30T11:42:25.414Z,42.48
2022-07-30T11:43:36.077Z,42.29
2022-07-30T11:44:39.055Z,41.43
2022-07-30T11:45:41.471Z,42.11
2022-07-30T11:46:48.933Z,42.14
2022-07-30T11:47:54.238Z,42.91
2022-07-30T11:49:08.353Z,43.19
2022-07-30T11:50:19.622Z,43.92
2022-07-30T11:51:22.026Z,41.21
2022-07-30T11:52:24.253Z,40.30
2022-07-30T11:53:26.503Z,42.28
2022-07-30T11:54:28.829Z,42.25
2022-07-30T11:55:34.358Z,41.97
2022-07-30T11:56:37.037Z,41.51
2022-07-30T11:57:40.473Z,40.80
2022-07-30T11:58:44.268Z,40.71
2022-07-30T11:59:58.943Z,41.15
2022-07-30T12:01:09.353Z,41.90
2022-07-30T12:02:11.866Z,42.34
2022-07-30T12:03:16.129Z,43.14
2022-07-30T12:04:19.072Z,41.03
2022-07-30T12:05:26.902Z,41.87
2022-07-30T12:06:31.943Z,43.13
2022-07-30T12:07:35.277Z,41.07
2022-07-30T12:08:42.268Z,42.41
2022-07-30T12:09:44.491Z,42.77
2022-07-30T12:11:00.109Z,43.55
2022-07-30T12:12:03.491Z,42.52
2022-07-30T12:13:11.915Z,39.42
2022-07-30T12:14:14.102Z,39.18
2022-07-30T12:15:33.266Z,40.16
2022-07-30T12:16:35.462Z,39.71
2022-07-30T12:17:45.116Z,40.73
2022-07-30T12:18:47.832Z,39.67
2022-07-30T12:19:50.309Z,39.26
2022-07-30T12:21:04.342Z,38.91
2022-07-30T12:22:06.556Z,38.61
2022-07-30T12:23:15.638Z,39.34
2022-07-30T12:24:26.618Z,39.65
2022-07-30T12:25:29.598Z,39.70
2022-07-30T12:26:34.392Z,38.91
2022-07-30T12:27:37.332Z,39.42
2022-07-30T12:28:39.594Z,39.40
2022-07-30T12:29:41.854Z,40.01
2022-07-30T12:30:44.355Z,40.00
2022-07-30T12:31:46.781Z,39.79
2022-07-30T12:32:49.282Z,39.14
2022-07-30T12:33:51.546Z,39.79
2022-07-30T12:34:58.099Z,40.08
2022-07-30T12:36:01.084Z,39.38
2022-07-30T12:37:10.454Z,39.57
2022-07-30T12:38:13.604Z,38.20
2022-07-30T12:39:26.398Z,37.56
2022-07-30T12:40:28.639Z,36.29
2022-07-30T12:41:44.911Z,36.39
2022-07-30T12:42:54.285Z,36.35
2022-07-30T12:43:56.545Z,35.42
2022-07-30T12:44:59.902Z,36.99
2022-07-30T12:46:02.139Z,37.65
2022-07-30T12:47:06.932Z,38.72
2022-07-30T12:48:12.948Z,39.47
2022-07-30T12:49:22.731Z,39.23
2022-07-30T12:50:27.122Z,38.20
2022-07-30T12:51:35.045Z,37.87
2022-07-30T12:52:40.301Z,36.84
2022-07-30T12:53:42.816Z,36.91
2022-07-30T12:54:44.995Z,36.57
2022-07-30T12:55:47.215Z,36.93
2022-07-30T12:57:04.579Z,37.88
2022-07-30T12:58:08.989Z,37.06
2022-07-30T12:59:21.769Z,37.76
2022-07-30T13:00:47.041Z,37.91
2022-07-30T13:01:50.223Z,37.98
2022-07-30T13:02:54.586Z,38.09
2022-07-30T13:04:05.710Z,37.87
2022-07-30T13:05:10.315Z,37.80
2022-07-30T13:06:18.839Z,38.10
2022-07-30T13:07:21.475Z,38.14
2022-07-30T13:08:45.280Z,38.23
2022-07-30T13:09:47.494Z,37.61
2022-07-30T13:11:00.704Z,37.42
2022-07-30T13:12:04.039Z,36.90
2022-07-30T13:13:06.309Z,36.97
2022-07-30T13:14:10.805Z,36.83
2022-07-30T13:15:20.784Z,36.78
2022-07-30T13:16:23.014Z,36.19
2022-07-30T13:17:25.200Z,36.32
2022-07-30T13:18:29.060Z,36.86
2022-07-30T13:19:31.227Z,37.45
2022-07-30T13:20:33.413Z,37.77
2022-07-30T13:21:35.636Z,38.52
2022-07-30T13:22:37.782Z,38.87
2022-07-30T13:23:41.093Z,39.48
2022-07-30T13:24:43.860Z,39.65
2022-07-30T13:25:46.032Z,40.40
2022-07-30T13:26:50.827Z,40.62
2022-07-30T13:27:53.154Z,41.19
2022-07-30T13:29:01.270Z,41.54
2022-07-30T13:30:05.328Z,41.85
2022-07-30T13:31:08.413Z,41.37
2022-07-30T13:32:10.637Z,42.28
2022-07-30T13:33:12.940Z,41.76
2022-07-30T13:34:15.178Z,40.39
2022-07-30T13:35:17.550Z,38.54
2022-07-30T13:36:19.839Z,39.38
2022-07-30T13:37:22.017Z,38.30
2022-07-30T13:38:26.050Z,37.35
2022-07-30T13:39:28.240Z,37.23
2022-07-30T13:40:32.176Z,37.43
2022-07-30T13:41:36.172Z,37.34
2022-07-30T13:42:38.462Z,37.70
2022-07-30T13:43:40.637Z,38.21
2022-07-30T13:44:42.813Z,38.27
2022-07-30T13:45:45.084Z,39.03
2022-07-30T13:46:47.379Z,38.53
2022-07-30T13:47:49.540Z,39.52
2022-07-30T13:48:51.797Z,40.23
2022-07-30T13:49:54.075Z,40.67
2022-07-30T13:50:56.489Z,40.67
2022-07-30T13:51:58.675Z,39.64
2022-07-30T13:53:02.539Z,39.70
2022-07-30T13:54:05.123Z,39.29
2022-07-30T13:55:07.326Z,38.61
2022-07-30T13:56:12.941Z,37.63
2022-07-30T13:57:15.311Z,38.43
2022-07-30T13:58:17.500Z,38.18
2022-07-30T13:59:19.641Z,36.89
2022-07-30T14:00:22.932Z,36.83
2022-07-30T14:01:25.142Z,36.94
2022-07-30T14:02:27.865Z,36.12
2022-07-30T14:03:30.401Z,37.06
2022-07-30T14:04:32.727Z,37.21
2022-07-30T14:05:36.166Z,37.48
2022-07-30T14:06:44.578Z,37.76
2022-07-30T14:07:46.740Z,38.49
2022-07-30T14:08:49.106Z,39.03
2022-07-30T14:09:54.390Z,39.02
2022-07-30T14:10:58.452Z,39.40
2022-07-30T14:12:00.677Z,38.17
2022-07-30T14:13:04.570Z,36.54
2022-07-30T14:14:06.744Z,37.49
2022-07-30T14:15:09.751Z,37.39
2022-07-30T14:16:35.417Z,37.22
2022-07-30T14:17:34.390Z,35.39
2022-07-30T14:18:36.565Z,35.08
2022-07-30T14:19:38.744Z,35.64
2022-07-30T14:20:44.528Z,35.18
2022-07-30T14:21:49.075Z,34.98
2022-07-30T14:22:51.455Z,35.33
2022-07-30T14:23:53.658Z,35.68
2022-07-30T14:24:55.879Z,35.30
2022-07-30T14:25:58.119Z,35.49
2022-07-30T14:27:00.706Z,35.37
2022-07-30T14:28:03.260Z,35.10
2022-07-30T14:29:06.030Z,35.18
2022-07-30T14:30:10.077Z,35.52
2022-07-30T14:31:12.289Z,35.10